sensor_id;sensor_type;location;lat;lon;timestamp;P1;durP1;ratioP1;P2;durP2;ratioP2
46415;SDS011;32620;51.704;7.822;2023-04-24T00:01:48;1.15;;;0.85;;
46415;SDS011;32620;51.704;7.822;2023-04-24T00:04:13;0.75;;;0.75;;
46415;SDS011;32620;51.704;7.822;2023-04-24T00:06:41;1.55;;;0.82;;
46415;SDS011;32620;51.704;7.822;2023-04-24T00:09:07;1.70;;;0.90;;
46415;SDS011;32620;51.704;7.822;2023-04-24T00:11:34;1.45;;;0.90;;
46415;SDS011;32620;51.704;7.822;2023-04-24T00:14:00;5.15;;;0.95;;
46415;SDS011;32620;51.704;7.822;2023-04-24T00:16:26;0.93;;;0.88;;
46415;SDS011;32620;51.704;7.822;2023-04-24T00:18:52;2.25;;;0.70;;
46415;SDS011;32620;51.704;7.822;2023-04-24T00:21:18;3.05;;;0.98;;
46415;SDS011;32620;51.704;7.822;2023-04-24T00:23:44;1.17;;;0.80;;
46415;SDS011;32620;51.704;7.822;2023-04-24T00:26:09;1.73;;;0.80;;
46415;SDS011;32620;51.704;7.822;2023-04-24T00:28:35;3.33;;;1.10;;
46415;SDS011;32620;51.704;7.822;2023-04-24T00:31:01;1.77;;;1.10;;
46415;SDS011;32620;51.704;7.822;2023-04-24T00:33:26;2.40;;;0.98;;
46415;SDS011;32620;51.704;7.822;2023-04-24T00:35:52;1.58;;;1.05;;
46415;SDS011;32620;51.704;7.822;2023-04-24T00:38:17;1.65;;;0.98;;
46415;SDS011;32620;51.704;7.822;2023-04-24T00:40:43;1.15;;;0.80;;
46415;SDS011;32620;51.704;7.822;2023-04-24T00:43:09;2.25;;;1.13;;
46415;SDS011;32620;51.704;7.822;2023-04-24T00:45:34;3.45;;;1.00;;
46415;SDS011;32620;51.704;7.822;2023-04-24T00:48:00;2.20;;;1.30;;
46415;SDS011;32620;51.704;7.822;2023-04-24T00:50:27;1.25;;;1.15;;
46415;SDS011;32620;51.704;7.822;2023-04-24T00:52:53;2.00;;;1.33;;
46415;SDS011;32620;51.704;7.822;2023-04-24T00:55:19;3.72;;;1.55;;
46415;SDS011;32620;51.704;7.822;2023-04-24T00:57:45;2.90;;;1.40;;
46415;SDS011;32620;51.704;7.822;2023-04-24T01:00:12;1.90;;;1.20;;
46415;SDS011;32620;51.704;7.822;2023-04-24T01:02:39;1.20;;;1.10;;
46415;SDS011;32620;51.704;7.822;2023-04-24T01:05:08;1.98;;;1.42;;
46415;SDS011;32620;51.704;7.822;2023-04-24T01:07:34;2.38;;;1.40;;
46415;SDS011;32620;51.704;7.822;2023-04-24T01:10:00;1.88;;;1.35;;
46415;SDS011;32620;51.704;7.822;2023-04-24T01:12:26;1.45;;;1.30;;
46415;SDS011;32620;51.704;7.822;2023-04-24T01:14:51;3.10;;;1.70;;
46415;SDS011;32620;51.704;7.822;2023-04-24T01:17:17;1.92;;;1.70;;
46415;SDS011;32620;51.704;7.822;2023-04-24T01:19:42;2.70;;;1.45;;
46415;SDS011;32620;51.704;7.822;2023-04-24T01:22:10;1.92;;;1.50;;
46415;SDS011;32620;51.704;7.822;2023-04-24T01:24:37;2.70;;;1.50;;
46415;SDS011;32620;51.704;7.822;2023-04-24T01:27:03;3.67;;;1.90;;
46415;SDS011;32620;51.704;7.822;2023-04-24T01:29:29;1.75;;;1.63;;
46415;SDS011;32620;51.704;7.822;2023-04-24T01:31:55;3.13;;;1.83;;
46415;SDS011;32620;51.704;7.822;2023-04-24T01:34:20;3.10;;;2.10;;
46415;SDS011;32620;51.704;7.822;2023-04-24T01:36:46;2.90;;;1.70;;
46415;SDS011;32620;51.704;7.822;2023-04-24T01:39:12;3.35;;;2.08;;
46415;SDS011;32620;51.704;7.822;2023-04-24T01:41:38;3.20;;;1.95;;
46415;SDS011;32620;51.704;7.822;2023-04-24T01:44:04;3.40;;;2.10;;
46415;SDS011;32620;51.704;7.822;2023-04-24T01:46:29;3.10;;;2.10;;
46415;SDS011;32620;51.704;7.822;2023-04-24T01:48:56;2.80;;;2.20;;
46415;SDS011;32620;51.704;7.822;2023-04-24T01:51:24;3.25;;;1.90;;
46415;SDS011;32620;51.704;7.822;2023-04-24T01:53:50;4.47;;;1.77;;
46415;SDS011;32620;51.704;7.822;2023-04-24T01:56:15;2.22;;;2.03;;
46415;SDS011;32620;51.704;7.822;2023-04-24T01:58:41;4.20;;;2.05;;
46415;SDS011;32620;51.704;7.822;2023-04-24T02:01:07;3.60;;;2.00;;
46415;SDS011;32620;51.704;7.822;2023-04-24T02:03:33;2.17;;;1.92;;
46415;SDS011;32620;51.704;7.822;2023-04-24T02:05:58;4.22;;;2.13;;
46415;SDS011;32620;51.704;7.822;2023-04-24T02:08:24;2.63;;;1.60;;
46415;SDS011;32620;51.704;7.822;2023-04-24T02:10:50;3.20;;;1.90;;
46415;SDS011;32620;51.704;7.822;2023-04-24T02:13:15;4.47;;;1.77;;
46415;SDS011;32620;51.704;7.822;2023-04-24T02:15:41;2.40;;;1.83;;
46415;SDS011;32620;51.704;7.822;2023-04-24T02:18:06;3.20;;;2.00;;
46415;SDS011;32620;51.704;7.822;2023-04-24T02:20:32;2.35;;;1.73;;
46415;SDS011;32620;51.704;7.822;2023-04-24T02:22:59;2.45;;;1.98;;
46415;SDS011;32620;51.704;7.822;2023-04-24T02:25:24;2.33;;;1.85;;
46415;SDS011;32620;51.704;7.822;2023-04-24T02:27:50;2.60;;;1.88;;
46415;SDS011;32620;51.704;7.822;2023-04-24T02:30:15;3.03;;;2.38;;
46415;SDS011;32620;51.704;7.822;2023-04-24T02:32:41;5.10;;;2.10;;
46415;SDS011;32620;51.704;7.822;2023-04-24T02:35:06;2.67;;;2.15;;
46415;SDS011;32620;51.704;7.822;2023-04-24T02:37:32;4.13;;;1.90;;
46415;SDS011;32620;51.704;7.822;2023-04-24T02:39:57;2.95;;;2.25;;
46415;SDS011;32620;51.704;7.822;2023-04-24T02:42:23;4.43;;;2.40;;
46415;SDS011;32620;51.704;7.822;2023-04-24T02:44:49;2.88;;;2.30;;
46415;SDS011;32620;51.704;7.822;2023-04-24T02:47:16;3.80;;;2.20;;
46415;SDS011;32620;51.704;7.822;2023-04-24T02:49:41;5.78;;;2.50;;
46415;SDS011;32620;51.704;7.822;2023-04-24T02:52:07;3.10;;;2.40;;
46415;SDS011;32620;51.704;7.822;2023-04-24T02:54:32;3.88;;;2.40;;
46415;SDS011;32620;51.704;7.822;2023-04-24T02:56:58;4.53;;;2.78;;
46415;SDS011;32620;51.704;7.822;2023-04-24T02:59:23;2.75;;;2.45;;
46415;SDS011;32620;51.704;7.822;2023-04-24T03:01:49;3.53;;;2.38;;
46415;SDS011;32620;51.704;7.822;2023-04-24T03:04:14;5.30;;;2.42;;
46415;SDS011;32620;51.704;7.822;2023-04-24T03:06:40;6.97;;;2.70;;
46415;SDS011;32620;51.704;7.822;2023-04-24T03:09:06;4.63;;;2.38;;
46415;SDS011;32620;51.704;7.822;2023-04-24T03:11:31;5.55;;;2.85;;
46415;SDS011;32620;51.704;7.822;2023-04-24T03:13:57;3.63;;;2.53;;
46415;SDS011;32620;51.704;7.822;2023-04-24T03:16:22;7.25;;;3.00;;
46415;SDS011;32620;51.704;7.822;2023-04-24T03:18:48;9.25;;;2.75;;
46415;SDS011;32620;51.704;7.822;2023-04-24T03:21:13;3.58;;;2.88;;
46415;SDS011;32620;51.704;7.822;2023-04-24T03:23:39;4.38;;;3.50;;
46415;SDS011;32620;51.704;7.822;2023-04-24T03:26:04;4.68;;;3.00;;
46415;SDS011;32620;51.704;7.822;2023-04-24T03:28:30;8.00;;;4.47;;
46415;SDS011;32620;51.704;7.822;2023-04-24T03:30:55;7.80;;;4.75;;
46415;SDS011;32620;51.704;7.822;2023-04-24T03:33:21;5.60;;;4.72;;
46415;SDS011;32620;51.704;7.822;2023-04-24T03:35:46;7.65;;;5.07;;
46415;SDS011;32620;51.704;7.822;2023-04-24T03:38:12;8.63;;;6.28;;
46415;SDS011;32620;51.704;7.822;2023-04-24T03:40:37;10.88;;;7.40;;
46415;SDS011;32620;51.704;7.822;2023-04-24T03:43:03;14.50;;;7.75;;
46415;SDS011;32620;51.704;7.822;2023-04-24T03:45:28;12.27;;;8.05;;
46415;SDS011;32620;51.704;7.822;2023-04-24T03:47:54;13.95;;;9.52;;
46415;SDS011;32620;51.704;7.822;2023-04-24T03:50:20;15.30;;;9.88;;
46415;SDS011;32620;51.704;7.822;2023-04-24T03:52:45;12.98;;;9.95;;
46415;SDS011;32620;51.704;7.822;2023-04-24T03:55:11;13.93;;;9.90;;
46415;SDS011;32620;51.704;7.822;2023-04-24T03:57:38;16.20;;;11.35;;
46415;SDS011;32620;51.704;7.822;2023-04-24T04:00:05;15.95;;;10.48;;
46415;SDS011;32620;51.704;7.822;2023-04-24T04:02:31;13.73;;;10.32;;
46415;SDS011;32620;51.704;7.822;2023-04-24T04:04:56;14.57;;;10.40;;
46415;SDS011;32620;51.704;7.822;2023-04-24T04:07:22;16.05;;;11.40;;
46415;SDS011;32620;51.704;7.822;2023-04-24T04:09:47;15.75;;;10.98;;
46415;SDS011;32620;51.704;7.822;2023-04-24T04:12:13;18.83;;;11.68;;
46415;SDS011;32620;51.704;7.822;2023-04-24T04:14:38;15.05;;;11.00;;
46415;SDS011;32620;51.704;7.822;2023-04-24T04:17:04;21.60;;;12.00;;
46415;SDS011;32620;51.704;7.822;2023-04-24T04:19:29;19.60;;;11.68;;
46415;SDS011;32620;51.704;7.822;2023-04-24T04:21:55;18.80;;;11.27;;
46415;SDS011;32620;51.704;7.822;2023-04-24T04:24:21;17.83;;;11.93;;
46415;SDS011;32620;51.704;7.822;2023-04-24T04:26:47;18.55;;;11.82;;
46415;SDS011;32620;51.704;7.822;2023-04-24T04:29:15;20.55;;;12.40;;
46415;SDS011;32620;51.704;7.822;2023-04-24T04:31:42;24.00;;;12.88;;
46415;SDS011;32620;51.704;7.822;2023-04-24T04:34:07;25.77;;;13.73;;
46415;SDS011;32620;51.704;7.822;2023-04-24T04:36:34;24.10;;;13.07;;
46415;SDS011;32620;51.704;7.822;2023-04-24T04:39:01;25.33;;;14.65;;
46415;SDS011;32620;51.704;7.822;2023-04-24T04:41:27;20.50;;;13.48;;
46415;SDS011;32620;51.704;7.822;2023-04-24T04:43:53;25.73;;;13.73;;
46415;SDS011;32620;51.704;7.822;2023-04-24T04:46:18;22.25;;;13.90;;
46415;SDS011;32620;51.704;7.822;2023-04-24T04:48:44;22.02;;;14.07;;
46415;SDS011;32620;51.704;7.822;2023-04-24T04:51:10;23.35;;;14.45;;
46415;SDS011;32620;51.704;7.822;2023-04-24T04:53:36;22.88;;;15.27;;
46415;SDS011;32620;51.704;7.822;2023-04-24T04:56:02;24.15;;;14.65;;
46415;SDS011;32620;51.704;7.822;2023-04-24T04:58:27;24.95;;;14.55;;
46415;SDS011;32620;51.704;7.822;2023-04-24T05:00:53;21.55;;;14.20;;
46415;SDS011;32620;51.704;7.822;2023-04-24T05:03:19;39.58;;;16.17;;
46415;SDS011;32620;51.704;7.822;2023-04-24T05:05:44;22.75;;;14.95;;
46415;SDS011;32620;51.704;7.822;2023-04-24T05:08:10;26.02;;;15.45;;
46415;SDS011;32620;51.704;7.822;2023-04-24T05:10:35;24.10;;;16.05;;
46415;SDS011;32620;51.704;7.822;2023-04-24T05:13:02;27.60;;;15.55;;
46415;SDS011;32620;51.704;7.822;2023-04-24T05:15:28;22.52;;;15.88;;
46415;SDS011;32620;51.704;7.822;2023-04-24T05:17:54;20.83;;;14.88;;
46415;SDS011;32620;51.704;7.822;2023-04-24T05:20:19;21.40;;;15.57;;
46415;SDS011;32620;51.704;7.822;2023-04-24T05:22:45;22.77;;;15.15;;
46415;SDS011;32620;51.704;7.822;2023-04-24T05:25:10;25.35;;;16.38;;
46415;SDS011;32620;51.704;7.822;2023-04-24T05:27:37;22.45;;;16.70;;
46415;SDS011;32620;51.704;7.822;2023-04-24T05:30:03;25.60;;;17.05;;
46415;SDS011;32620;51.704;7.822;2023-04-24T05:32:29;22.88;;;16.10;;
46415;SDS011;32620;51.704;7.822;2023-04-24T05:34:55;23.25;;;16.08;;
46415;SDS011;32620;51.704;7.822;2023-04-24T05:37:20;24.52;;;15.93;;
46415;SDS011;32620;51.704;7.822;2023-04-24T05:39:46;20.27;;;15.00;;
46415;SDS011;32620;51.704;7.822;2023-04-24T05:42:11;24.88;;;15.90;;
46415;SDS011;32620;51.704;7.822;2023-04-24T05:44:37;27.27;;;16.73;;
46415;SDS011;32620;51.704;7.822;2023-04-24T05:47:02;28.08;;;16.98;;
46415;SDS011;32620;51.704;7.822;2023-04-24T05:49:28;27.08;;;16.77;;
46415;SDS011;32620;51.704;7.822;2023-04-24T05:51:54;27.30;;;16.85;;
46415;SDS011;32620;51.704;7.822;2023-04-24T05:54:19;26.40;;;16.40;;
46415;SDS011;32620;51.704;7.822;2023-04-24T05:56:45;31.17;;;17.00;;
46415;SDS011;32620;51.704;7.822;2023-04-24T05:59:11;25.45;;;16.27;;
46415;SDS011;32620;51.704;7.822;2023-04-24T06:01:36;24.83;;;16.38;;
46415;SDS011;32620;51.704;7.822;2023-04-24T06:04:03;21.50;;;15.52;;
46415;SDS011;32620;51.704;7.822;2023-04-24T06:06:29;25.08;;;15.82;;
46415;SDS011;32620;51.704;7.822;2023-04-24T06:08:55;21.30;;;16.13;;
46415;SDS011;32620;51.704;7.822;2023-04-24T06:11:21;22.50;;;15.38;;
46415;SDS011;32620;51.704;7.822;2023-04-24T06:13:47;24.38;;;15.82;;
46415;SDS011;32620;51.704;7.822;2023-04-24T06:16:13;24.77;;;16.13;;
46415;SDS011;32620;51.704;7.822;2023-04-24T06:18:38;22.15;;;14.93;;
46415;SDS011;32620;51.704;7.822;2023-04-24T06:21:04;21.73;;;14.43;;
46415;SDS011;32620;51.704;7.822;2023-04-24T06:23:30;21.38;;;14.55;;
46415;SDS011;32620;51.704;7.822;2023-04-24T06:25:57;18.70;;;14.13;;
46415;SDS011;32620;51.704;7.822;2023-04-24T06:28:23;19.35;;;13.23;;
46415;SDS011;32620;51.704;7.822;2023-04-24T06:30:49;17.60;;;12.20;;
46415;SDS011;32620;51.704;7.822;2023-04-24T06:33:15;17.60;;;11.18;;
46415;SDS011;32620;51.704;7.822;2023-04-24T06:35:41;15.82;;;11.60;;
46415;SDS011;32620;51.704;7.822;2023-04-24T06:38:06;14.73;;;10.63;;
46415;SDS011;32620;51.704;7.822;2023-04-24T06:40:32;13.15;;;10.18;;
46415;SDS011;32620;51.704;7.822;2023-04-24T06:42:58;13.65;;;9.93;;
46415;SDS011;32620;51.704;7.822;2023-04-24T06:45:25;13.50;;;10.23;;
46415;SDS011;32620;51.704;7.822;2023-04-24T06:47:50;16.52;;;10.50;;
46415;SDS011;32620;51.704;7.822;2023-04-24T06:50:16;15.93;;;10.07;;
46415;SDS011;32620;51.704;7.822;2023-04-24T06:52:42;14.77;;;10.73;;
46415;SDS011;32620;51.704;7.822;2023-04-24T06:55:07;15.20;;;9.90;;
46415;SDS011;32620;51.704;7.822;2023-04-24T06:57:33;18.35;;;10.57;;
46415;SDS011;32620;51.704;7.822;2023-04-24T06:59:58;17.58;;;10.65;;
46415;SDS011;32620;51.704;7.822;2023-04-24T07:02:24;13.65;;;10.18;;
46415;SDS011;32620;51.704;7.822;2023-04-24T07:04:50;14.35;;;10.10;;
46415;SDS011;32620;51.704;7.822;2023-04-24T07:07:16;13.18;;;10.00;;
46415;SDS011;32620;51.704;7.822;2023-04-24T07:09:41;11.60;;;9.38;;
46415;SDS011;32620;51.704;7.822;2023-04-24T07:12:07;12.48;;;8.95;;
46415;SDS011;32620;51.704;7.822;2023-04-24T07:14:35;8.98;;;6.90;;
46415;SDS011;32620;51.704;7.822;2023-04-24T07:17:02;13.43;;;8.35;;
46415;SDS011;32620;51.704;7.822;2023-04-24T07:19:28;11.02;;;7.72;;
46415;SDS011;32620;51.704;7.822;2023-04-24T07:21:54;12.15;;;8.30;;
46415;SDS011;32620;51.704;7.822;2023-04-24T07:24:20;13.10;;;8.23;;
46415;SDS011;32620;51.704;7.822;2023-04-24T07:26:45;9.40;;;7.55;;
46415;SDS011;32620;51.704;7.822;2023-04-24T07:29:11;14.90;;;8.50;;
46415;SDS011;32620;51.704;7.822;2023-04-24T07:31:38;15.18;;;7.70;;
46415;SDS011;32620;51.704;7.822;2023-04-24T07:34:03;13.13;;;7.22;;
46415;SDS011;32620;51.704;7.822;2023-04-24T07:36:29;12.52;;;6.32;;
46415;SDS011;32620;51.704;7.822;2023-04-24T07:38:55;12.90;;;6.30;;
46415;SDS011;32620;51.704;7.822;2023-04-24T07:41:21;7.93;;;6.50;;
46415;SDS011;32620;51.704;7.822;2023-04-24T07:43:49;7.88;;;6.45;;
46415;SDS011;32620;51.704;7.822;2023-04-24T07:46:14;9.88;;;6.65;;
46415;SDS011;32620;51.704;7.822;2023-04-24T07:48:40;9.10;;;6.30;;
46415;SDS011;32620;51.704;7.822;2023-04-24T07:51:06;7.93;;;7.13;;
46415;SDS011;32620;51.704;7.822;2023-04-24T07:53:31;8.90;;;5.80;;
46415;SDS011;32620;51.704;7.822;2023-04-24T07:55:57;7.78;;;6.72;;
46415;SDS011;32620;51.704;7.822;2023-04-24T07:58:23;11.55;;;6.78;;
46415;SDS011;32620;51.704;7.822;2023-04-24T08:00:48;8.75;;;6.93;;
46415;SDS011;32620;51.704;7.822;2023-04-24T08:03:14;9.05;;;6.90;;
46415;SDS011;32620;51.704;7.822;2023-04-24T08:05:40;10.73;;;7.20;;
46415;SDS011;32620;51.704;7.822;2023-04-24T08:08:06;8.93;;;7.75;;
46415;SDS011;32620;51.704;7.822;2023-04-24T08:10:32;9.32;;;6.90;;
46415;SDS011;32620;51.704;7.822;2023-04-24T08:12:57;8.73;;;6.93;;
46415;SDS011;32620;51.704;7.822;2023-04-24T08:15:23;7.88;;;6.25;;
46415;SDS011;32620;51.704;7.822;2023-04-24T08:17:48;7.13;;;4.95;;
46415;SDS011;32620;51.704;7.822;2023-04-24T08:20:15;7.25;;;5.13;;
46415;SDS011;32620;51.704;7.822;2023-04-24T08:22:41;4.68;;;4.00;;
46415;SDS011;32620;51.704;7.822;2023-04-24T08:25:07;6.20;;;3.72;;
46415;SDS011;32620;51.704;7.822;2023-04-24T08:27:34;6.07;;;4.50;;
46415;SDS011;32620;51.704;7.822;2023-04-24T08:30:01;4.63;;;4.10;;
46415;SDS011;32620;51.704;7.822;2023-04-24T08:32:27;5.45;;;4.65;;
46415;SDS011;32620;51.704;7.822;2023-04-24T08:34:54;5.40;;;4.90;;
46415;SDS011;32620;51.704;7.822;2023-04-24T08:37:21;5.80;;;4.55;;
46415;SDS011;32620;51.704;7.822;2023-04-24T08:39:47;9.23;;;6.05;;
46415;SDS011;32620;51.704;7.822;2023-04-24T08:42:12;7.95;;;5.30;;
46415;SDS011;32620;51.704;7.822;2023-04-24T08:44:39;6.80;;;5.50;;
46415;SDS011;32620;51.704;7.822;2023-04-24T08:47:05;7.82;;;6.32;;
46415;SDS011;32620;51.704;7.822;2023-04-24T08:49:33;7.85;;;6.28;;
46415;SDS011;32620;51.704;7.822;2023-04-24T08:52:00;4.32;;;3.92;;
46415;SDS011;32620;51.704;7.822;2023-04-24T08:54:27;4.32;;;3.72;;
46415;SDS011;32620;51.704;7.822;2023-04-24T08:56:54;4.18;;;2.95;;
46415;SDS011;32620;51.704;7.822;2023-04-24T08:59:27;5.18;;;2.78;;
46415;SDS011;32620;51.704;7.822;2023-04-24T09:01:53;7.10;;;2.80;;
46415;SDS011;32620;51.704;7.822;2023-04-24T09:04:20;2.72;;;1.60;;
46415;SDS011;32620;51.704;7.822;2023-04-24T09:06:49;2.50;;;1.73;;
46415;SDS011;32620;51.704;7.822;2023-04-24T09:09:17;3.75;;;2.20;;
46415;SDS011;32620;51.704;7.822;2023-04-24T09:11:43;1.75;;;1.60;;
46415;SDS011;32620;51.704;7.822;2023-04-24T09:14:09;1.27;;;1.00;;
46415;SDS011;32620;51.704;7.822;2023-04-24T09:16:35;1.00;;;1.00;;
46415;SDS011;32620;51.704;7.822;2023-04-24T09:19:01;3.20;;;1.20;;
46415;SDS011;32620;51.704;7.822;2023-04-24T09:21:31;1.75;;;1.25;;
46415;SDS011;32620;51.704;7.822;2023-04-24T09:23:58;1.90;;;1.30;;
46415;SDS011;32620;51.704;7.822;2023-04-24T09:26:25;1.55;;;1.45;;
46415;SDS011;32620;51.704;7.822;2023-04-24T09:28:54;2.22;;;1.67;;
46415;SDS011;32620;51.704;7.822;2023-04-24T09:31:19;1.67;;;1.50;;
46415;SDS011;32620;51.704;7.822;2023-04-24T09:34:03;3.00;;;1.48;;
46415;SDS011;32620;51.704;7.822;2023-04-24T09:36:33;1.50;;;1.35;;
46415;SDS011;32620;51.704;7.822;2023-04-24T09:39:02;1.60;;;1.50;;
46415;SDS011;32620;51.704;7.822;2023-04-24T09:41:31;2.20;;;2.00;;
46415;SDS011;32620;51.704;7.822;2023-04-24T09:44:09;2.63;;;2.22;;
46415;SDS011;32620;51.704;7.822;2023-04-24T09:46:37;2.10;;;1.90;;
46415;SDS011;32620;51.704;7.822;2023-04-24T09:49:11;3.33;;;1.63;;
46415;SDS011;32620;51.704;7.822;2023-04-24T09:51:40;2.20;;;1.98;;
46415;SDS011;32620;51.704;7.822;2023-04-24T09:54:13;1.65;;;1.55;;
46415;SDS011;32620;51.704;7.822;2023-04-24T09:56:44;2.38;;;1.70;;
46415;SDS011;32620;51.704;7.822;2023-04-24T09:59:12;1.70;;;1.60;;
46415;SDS011;32620;51.704;7.822;2023-04-24T10:01:38;2.70;;;1.73;;
46415;SDS011;32620;51.704;7.822;2023-04-24T10:04:06;2.95;;;1.80;;
46415;SDS011;32620;51.704;7.822;2023-04-24T10:06:40;3.80;;;2.03;;
46415;SDS011;32620;51.704;7.822;2023-04-24T10:09:07;2.60;;;2.40;;
46415;SDS011;32620;51.704;7.822;2023-04-24T10:11:35;3.05;;;2.67;;
46415;SDS011;32620;51.704;7.822;2023-04-24T10:14:02;3.80;;;2.38;;
46415;SDS011;32620;51.704;7.822;2023-04-24T10:16:28;3.92;;;2.95;;
46415;SDS011;32620;51.704;7.822;2023-04-24T10:18:55;3.72;;;3.40;;
46415;SDS011;32620;51.704;7.822;2023-04-24T10:21:23;6.50;;;4.53;;
46415;SDS011;32620;51.704;7.822;2023-04-24T10:23:49;9.07;;;6.00;;
46415;SDS011;32620;51.704;7.822;2023-04-24T10:26:16;10.57;;;7.05;;
46415;SDS011;32620;51.704;7.822;2023-04-24T10:28:44;8.32;;;6.95;;
46415;SDS011;32620;51.704;7.822;2023-04-24T10:31:10;7.85;;;7.05;;
46415;SDS011;32620;51.704;7.822;2023-04-24T10:33:38;8.88;;;7.57;;
46415;SDS011;32620;51.704;7.822;2023-04-24T10:36:06;7.47;;;6.78;;
46415;SDS011;32620;51.704;7.822;2023-04-24T10:38:34;9.50;;;7.68;;
46415;SDS011;32620;51.704;7.822;2023-04-24T10:41:08;6.88;;;6.10;;
46415;SDS011;32620;51.704;7.822;2023-04-24T10:43:39;9.63;;;6.88;;
46415;SDS011;32620;51.704;7.822;2023-04-24T10:46:06;6.00;;;5.40;;
46415;SDS011;32620;51.704;7.822;2023-04-24T10:48:32;6.10;;;5.43;;
46415;SDS011;32620;51.704;7.822;2023-04-24T10:50:58;5.18;;;4.47;;
46415;SDS011;32620;51.704;7.822;2023-04-24T10:53:24;4.13;;;3.75;;
46415;SDS011;32620;51.704;7.822;2023-04-24T10:58:36;6.18;;;5.05;;
46415;SDS011;32620;51.704;7.822;2023-04-24T11:01:03;6.97;;;4.70;;
46415;SDS011;32620;51.704;7.822;2023-04-24T11:03:30;5.47;;;4.47;;
46415;SDS011;32620;51.704;7.822;2023-04-24T11:06:01;4.57;;;4.10;;
46415;SDS011;32620;51.704;7.822;2023-04-24T11:08:30;5.20;;;3.72;;
46415;SDS011;32620;51.704;7.822;2023-04-24T11:11:13;5.88;;;3.95;;
46415;SDS011;32620;51.704;7.822;2023-04-24T11:16:33;9.27;;;4.90;;
46415;SDS011;32620;51.704;7.822;2023-04-24T11:19:04;7.07;;;5.15;;
46415;SDS011;32620;51.704;7.822;2023-04-24T11:21:41;7.45;;;5.20;;
46415;SDS011;32620;51.704;7.822;2023-04-24T11:24:39;7.15;;;5.10;;
46415;SDS011;32620;51.704;7.822;2023-04-24T11:30:00;8.98;;;6.43;;
46415;SDS011;32620;51.704;7.822;2023-04-24T11:32:30;7.53;;;5.30;;
46415;SDS011;32620;51.704;7.822;2023-04-24T11:35:18;8.27;;;6.57;;
46415;SDS011;32620;51.704;7.822;2023-04-24T11:37:51;8.35;;;6.50;;
46415;SDS011;32620;51.704;7.822;2023-04-24T11:40:18;13.35;;;6.82;;
46415;SDS011;32620;51.704;7.822;2023-04-24T11:42:47;11.93;;;7.20;;
46415;SDS011;32620;51.704;7.822;2023-04-24T11:45:18;9.80;;;6.72;;
46415;SDS011;32620;51.704;7.822;2023-04-24T11:47:48;13.13;;;7.13;;
46415;SDS011;32620;51.704;7.822;2023-04-24T11:50:14;9.77;;;6.63;;
46415;SDS011;32620;51.704;7.822;2023-04-24T11:52:42;12.52;;;7.65;;
46415;SDS011;32620;51.704;7.822;2023-04-24T11:57:48;12.30;;;6.47;;
46415;SDS011;32620;51.704;7.822;2023-04-24T12:00:16;17.02;;;7.80;;
46415;SDS011;32620;51.704;7.822;2023-04-24T12:02:43;14.10;;;7.22;;
46415;SDS011;32620;51.704;7.822;2023-04-24T12:05:09;18.13;;;7.90;;
46415;SDS011;32620;51.704;7.822;2023-04-24T12:07:43;17.40;;;7.05;;
46415;SDS011;32620;51.704;7.822;2023-04-24T12:10:09;18.05;;;8.02;;
46415;SDS011;32620;51.704;7.822;2023-04-24T12:12:35;15.18;;;7.55;;
46415;SDS011;32620;51.704;7.822;2023-04-24T12:15:01;15.23;;;7.38;;
46415;SDS011;32620;51.704;7.822;2023-04-24T12:17:31;15.27;;;7.65;;
46415;SDS011;32620;51.704;7.822;2023-04-24T12:19:59;16.27;;;8.35;;
46415;SDS011;32620;51.704;7.822;2023-04-24T12:22:27;19.02;;;8.90;;
46415;SDS011;32620;51.704;7.822;2023-04-24T12:24:58;18.02;;;8.10;;
46415;SDS011;32620;51.704;7.822;2023-04-24T12:27:29;17.85;;;8.50;;
46415;SDS011;32620;51.704;7.822;2023-04-24T12:29:56;22.58;;;9.32;;
46415;SDS011;32620;51.704;7.822;2023-04-24T12:32:22;23.08;;;8.80;;
46415;SDS011;32620;51.704;7.822;2023-04-24T12:34:50;17.92;;;9.18;;
46415;SDS011;32620;51.704;7.822;2023-04-24T12:37:22;25.70;;;9.13;;
46415;SDS011;32620;51.704;7.822;2023-04-24T12:40:21;21.08;;;8.95;;
46415;SDS011;32620;51.704;7.822;2023-04-24T12:42:45;17.23;;;8.70;;
46415;SDS011;32620;51.704;7.822;2023-04-24T12:45:12;21.30;;;10.27;;
46415;SDS011;32620;51.704;7.822;2023-04-24T12:47:39;18.90;;;9.38;;
46415;SDS011;32620;51.704;7.822;2023-04-24T12:50:06;18.88;;;8.80;;
46415;SDS011;32620;51.704;7.822;2023-04-24T12:52:33;19.52;;;9.20;;
46415;SDS011;32620;51.704;7.822;2023-04-24T12:54:59;21.42;;;10.77;;
46415;SDS011;32620;51.704;7.822;2023-04-24T12:57:27;28.08;;;9.90;;
46415;SDS011;32620;51.704;7.822;2023-04-24T12:59:54;19.35;;;9.48;;
46415;SDS011;32620;51.704;7.822;2023-04-24T13:02:22;24.40;;;9.13;;
46415;SDS011;32620;51.704;7.822;2023-04-24T13:04:49;26.00;;;8.55;;
46415;SDS011;32620;51.704;7.822;2023-04-24T13:07:15;16.25;;;8.95;;
46415;SDS011;32620;51.704;7.822;2023-04-24T13:09:42;21.95;;;9.25;;
46415;SDS011;32620;51.704;7.822;2023-04-24T13:12:09;27.35;;;9.65;;
46415;SDS011;32620;51.704;7.822;2023-04-24T13:14:35;19.67;;;9.38;;
46415;SDS011;32620;51.704;7.822;2023-04-24T13:17:04;19.73;;;8.82;;
46415;SDS011;32620;51.704;7.822;2023-04-24T13:19:34;20.02;;;8.63;;
46415;SDS011;32620;51.704;7.822;2023-04-24T13:22:02;18.67;;;8.98;;
46415;SDS011;32620;51.704;7.822;2023-04-24T13:24:29;20.23;;;7.18;;
46415;SDS011;32620;51.704;7.822;2023-04-24T13:26:56;14.50;;;6.80;;
46415;SDS011;32620;51.704;7.822;2023-04-24T13:29:22;15.05;;;5.72;;
46415;SDS011;32620;51.704;7.822;2023-04-24T13:31:50;11.43;;;5.85;;
46415;SDS011;32620;51.704;7.822;2023-04-24T13:34:16;14.45;;;6.78;;
46415;SDS011;32620;51.704;7.822;2023-04-24T13:36:45;17.00;;;5.63;;
46415;SDS011;32620;51.704;7.822;2023-04-24T13:39:11;11.27;;;5.57;;
46415;SDS011;32620;51.704;7.822;2023-04-24T13:41:36;14.77;;;5.78;;
46415;SDS011;32620;51.704;7.822;2023-04-24T13:44:05;13.95;;;5.70;;
46415;SDS011;32620;51.704;7.822;2023-04-24T13:46:31;12.05;;;5.20;;
46415;SDS011;32620;51.704;7.822;2023-04-24T13:48:57;11.95;;;4.75;;
46415;SDS011;32620;51.704;7.822;2023-04-24T13:51:24;10.13;;;5.15;;
46415;SDS011;32620;51.704;7.822;2023-04-24T13:53:52;14.25;;;4.63;;
46415;SDS011;32620;51.704;7.822;2023-04-24T13:56:18;10.45;;;4.68;;
46415;SDS011;32620;51.704;7.822;2023-04-24T13:58:45;11.77;;;3.92;;
46415;SDS011;32620;51.704;7.822;2023-04-24T14:01:12;9.10;;;3.88;;
46415;SDS011;32620;51.704;7.822;2023-04-24T14:03:38;7.30;;;3.65;;
46415;SDS011;32620;51.704;7.822;2023-04-24T14:06:04;8.50;;;3.80;;
46415;SDS011;32620;51.704;7.822;2023-04-24T14:08:31;10.98;;;3.60;;
46415;SDS011;32620;51.704;7.822;2023-04-24T14:10:57;10.10;;;4.00;;
46415;SDS011;32620;51.704;7.822;2023-04-24T14:13:22;8.20;;;3.80;;
46415;SDS011;32620;51.704;7.822;2023-04-24T14:15:48;8.10;;;4.28;;
46415;SDS011;32620;51.704;7.822;2023-04-24T14:18:14;9.80;;;4.63;;
46415;SDS011;32620;51.704;7.822;2023-04-24T14:20:40;9.30;;;5.60;;
46415;SDS011;32620;51.704;7.822;2023-04-24T14:23:07;12.52;;;6.47;;
46415;SDS011;32620;51.704;7.822;2023-04-24T14:25:32;10.90;;;5.30;;
46415;SDS011;32620;51.704;7.822;2023-04-24T14:28:01;7.18;;;4.50;;
46415;SDS011;32620;51.704;7.822;2023-04-24T14:30:30;9.02;;;4.18;;
46415;SDS011;32620;51.704;7.822;2023-04-24T14:32:56;9.18;;;4.70;;
46415;SDS011;32620;51.704;7.822;2023-04-24T14:35:22;8.95;;;3.78;;
46415;SDS011;32620;51.704;7.822;2023-04-24T14:37:47;7.15;;;3.97;;
46415;SDS011;32620;51.704;7.822;2023-04-24T14:40:14;4.70;;;3.33;;
46415;SDS011;32620;51.704;7.822;2023-04-24T14:42:40;8.85;;;4.00;;
46415;SDS011;32620;51.704;7.822;2023-04-24T14:45:06;10.05;;;4.80;;
46415;SDS011;32620;51.704;7.822;2023-04-24T14:47:33;10.18;;;4.40;;